createdAt,value
2019-02-12T00:00:44.895Z,0.00
2019-02-12T00:01:44.884Z,0.00
2019-02-12T00:02:44.874Z,0.00
2019-02-12T00:03:44.879Z,0.00
2019-02-12T00:04:44.854Z,0.00
2019-02-12T00:05:44.850Z,0.00
2019-02-12T00:06:44.832Z,0.00
2019-02-12T00:07:44.820Z,0.00
2019-02-12T00:08:44.831Z,0.00
2019-02-12T00:09:44.801Z,0.00
2019-02-12T00:10:44.788Z,0.00
2019-02-12T00:11:44.786Z,0.00
2019-02-12T00:12:44.770Z,0.00
2019-02-12T00:13:44.772Z,0.00
2019-02-12T00:14:44.760Z,0.00
2019-02-12T00:15:44.739Z,0.00
2019-02-12T00:16:44.740Z,0.00
2019-02-12T00:17:44.717Z,0.00
2019-02-12T00:18:44.722Z,0.00
2019-02-12T00:19:44.696Z,0.00
2019-02-12T00:20:44.684Z,0.00
2019-02-12T00:21:44.673Z,0.00
2019-02-12T00:22:44.667Z,0.00
2019-02-12T00:23:44.665Z,0.00
2019-02-12T00:24:44.643Z,0.00
2019-02-12T00:25:44.632Z,0.00
2019-02-12T00:26:44.624Z,0.00
2019-02-12T00:27:44.615Z,0.00
2019-02-12T00:28:44.623Z,0.00
2019-02-12T00:29:44.592Z,0.00
2019-02-12T00:30:44.583Z,0.00
2019-02-12T00:31:44.569Z,0.00
2019-02-12T00:32:44.562Z,0.00
2019-02-12T00:33:44.566Z,0.00
2019-02-12T00:34:44.562Z,0.00
2019-02-12T00:35:44.527Z,0.00
2019-02-12T00:36:44.516Z,0.00
2019-02-12T00:37:44.508Z,0.00
2019-02-12T00:38:44.511Z,0.00
2019-02-12T00:39:44.487Z,0.00
2019-02-12T00:40:44.487Z,0.00
2019-02-12T00:41:44.461Z,0.00
2019-02-12T00:42:44.454Z,0.00
2019-02-12T00:43:44.453Z,0.00
2019-02-12T00:44:44.438Z,0.00
2019-02-12T00:45:44.425Z,0.00
2019-02-12T00:46:44.419Z,0.00
2019-02-12T00:47:44.404Z,0.00
2019-02-12T00:48:44.419Z,0.00
2019-02-12T00:49:44.379Z,0.00
2019-02-12T00:50:44.369Z,0.00
2019-02-12T00:51:44.363Z,0.00
2019-02-12T00:52:44.357Z,0.00
2019-02-12T00:53:44.339Z,0.00
2019-02-12T00:54:44.343Z,0.00
2019-02-12T00:55:44.322Z,0.00
2019-02-12T00:56:44.311Z,0.00
2019-02-12T00:57:44.299Z,0.00
2019-02-12T00:58:44.287Z,0.00
2019-02-12T00:59:44.291Z,0.00
2019-02-12T01:00:44.263Z,0.00
2019-02-12T01:01:44.257Z,0.00
2019-02-12T01:02:44.243Z,0.00
2019-02-12T01:03:44.234Z,0.00
2019-02-12T01:04:44.232Z,0.00
2019-02-12T01:05:44.212Z,0.00
2019-02-12T01:06:44.201Z,0.00
2019-02-12T01:07:44.190Z,0.00
2019-02-12T01:08:44.180Z,0.00
2019-02-12T01:09:44.182Z,0.00
2019-02-12T01:10:44.158Z,0.00
2019-02-12T01:11:44.149Z,0.00
2019-02-12T01:12:44.145Z,0.00
2019-02-12T01:13:44.128Z,0.00
2019-02-12T01:14:44.131Z,0.00
2019-02-12T01:15:44.109Z,0.00
2019-02-12T01:16:44.099Z,0.00
2019-02-12T01:17:44.087Z,0.00
2019-02-12T01:18:44.077Z,0.00
2019-02-12T01:19:44.497Z,0.00
2019-02-12T01:20:44.054Z,0.00
2019-02-12T01:21:44.045Z,0.00
2019-02-12T01:22:44.031Z,0.00
2019-02-12T01:23:44.029Z,0.00
2019-02-12T01:24:44.024Z,0.00
2019-02-12T01:25:44.013Z,0.00
2019-02-12T01:26:43.993Z,0.00
2019-02-12T01:27:43.994Z,0.00
2019-02-12T01:28:43.969Z,0.00
2019-02-12T01:29:43.972Z,0.00
2019-02-12T01:30:43.951Z,0.00
2019-02-12T01:31:43.945Z,0.00
2019-02-12T01:32:43.936Z,0.00
2019-02-12T01:33:43.923Z,0.00
2019-02-12T01:34:43.928Z,0.00
2019-02-12T01:35:43.906Z,0.00
2019-02-12T01:36:43.888Z,0.00
2019-02-12T01:37:43.877Z,0.00
2019-02-12T01:38:43.864Z,0.00
2019-02-12T01:39:43.867Z,0.00
2019-02-12T01:40:45.733Z,0.00
2019-02-12T01:41:43.832Z,0.00
2019-02-12T01:42:43.820Z,0.00
2019-02-12T01:43:43.811Z,0.00
2019-02-12T01:44:43.814Z,0.00
2019-02-12T01:45:43.800Z,0.00
2019-02-12T01:46:43.782Z,0.00
2019-02-12T01:47:43.775Z,0.00
2019-02-12T01:48:43.759Z,0.00
2019-02-12T01:49:43.764Z,0.00
2019-02-12T01:50:43.742Z,0.00
2019-02-12T01:51:43.746Z,0.00
2019-02-12T01:52:43.717Z,0.00
2019-02-12T01:53:43.712Z,0.00
2019-02-12T01:54:43.707Z,0.00
2019-02-12T01:55:43.692Z,0.00
2019-02-12T01:56:43.682Z,0.00
2019-02-12T01:57:43.662Z,0.00
2019-02-12T01:58:43.673Z,0.00
2019-02-12T01:59:43.660Z,0.00
2019-02-12T02:00:43.635Z,0.00
2019-02-12T02:01:43.623Z,0.00
2019-02-12T02:02:43.618Z,0.00
2019-02-12T02:03:43.607Z,0.00
2019-02-12T02:04:43.610Z,0.00
2019-02-12T02:05:43.589Z,0.00
2019-02-12T02:06:43.569Z,0.00
2019-02-12T02:07:43.558Z,0.00
2019-02-12T02:08:43.546Z,0.00
2019-02-12T02:09:43.567Z,0.00
2019-02-12T02:10:43.529Z,0.00
2019-02-12T02:11:43.521Z,0.00
2019-02-12T02:12:43.526Z,0.00
2019-02-12T02:13:43.499Z,0.00
2019-02-12T02:14:43.483Z,0.00
2019-02-12T02:15:43.490Z,0.00
2019-02-12T02:16:43.471Z,0.00
2019-02-12T02:17:43.457Z,0.00
2019-02-12T02:18:43.443Z,0.00
2019-02-12T02:19:43.434Z,0.00
2019-02-12T02:20:43.434Z,0.00
2019-02-12T02:21:44.271Z,0.00
2019-02-12T02:22:43.404Z,0.00
2019-02-12T02:23:43.390Z,0.00
2019-02-12T02:24:43.381Z,0.00
2019-02-12T02:25:43.384Z,0.00
2019-02-12T02:26:43.360Z,0.00
2019-02-12T02:27:43.353Z,0.00
2019-02-12T02:28:43.337Z,0.00
2019-02-12T02:29:43.357Z,0.00
2019-02-12T02:30:43.327Z,0.00
2019-02-12T02:31:43.353Z,0.00
2019-02-12T02:32:43.298Z,0.00
2019-02-12T02:33:43.286Z,0.00
2019-02-12T02:34:43.276Z,0.00
2019-02-12T02:35:43.289Z,0.00
2019-02-12T02:36:43.253Z,0.00
2019-02-12T02:37:43.243Z,0.00
2019-02-12T02:38:43.234Z,0.00
2019-02-12T02:39:43.229Z,0.00
2019-02-12T02:40:43.231Z,0.00
2019-02-12T02:41:43.200Z,0.00
2019-02-12T02:42:43.193Z,0.00
2019-02-12T02:43:43.188Z,0.00
2019-02-12T02:44:43.181Z,0.00
2019-02-12T02:45:43.179Z,0.00
2019-02-12T02:46:43.151Z,0.00
2019-02-12T02:47:43.140Z,0.00
2019-02-12T02:48:43.128Z,0.00
2019-02-12T02:49:43.127Z,0.00
2019-02-12T02:50:43.116Z,0.00
2019-02-12T02:51:43.114Z,0.00
2019-02-12T02:52:43.090Z,0.00
2019-02-12T02:53:43.091Z,0.00
2019-02-12T02:54:43.068Z,0.00
2019-02-12T02:55:43.077Z,0.00
2019-02-12T02:56:43.044Z,0.00
2019-02-12T02:57:43.033Z,0.00
2019-02-12T02:58:43.026Z,0.00
2019-02-12T02:59:43.014Z,0.00
2019-02-12T03:00:43.012Z,0.00
2019-02-12T03:01:43.016Z,0.00
2019-02-12T03:02:42.987Z,0.00
2019-02-12T03:03:42.972Z,0.00
2019-02-12T03:04:42.965Z,0.00
2019-02-12T03:05:42.962Z,0.00
2019-02-12T03:06:42.949Z,0.00
2019-02-12T03:07:42.931Z,0.00
2019-02-12T03:08:42.917Z,0.00
2019-02-12T03:09:42.908Z,0.00
2019-02-12T03:10:42.919Z,0.00
2019-02-12T03:11:42.887Z,0.00
2019-02-12T03:12:42.887Z,0.00
2019-02-12T03:13:42.882Z,0.00
2019-02-12T03:14:42.857Z,0.00
2019-02-12T03:15:42.858Z,0.00
2019-02-12T03:16:42.860Z,0.00
2019-02-12T03:17:42.828Z,0.00
2019-02-12T03:18:42.816Z,0.00
2019-02-12T03:19:42.804Z,0.00
2019-02-12T03:20:42.819Z,0.00
2019-02-12T03:21:42.789Z,0.00
2019-02-12T03:22:42.839Z,0.00
2019-02-12T03:23:42.767Z,0.00
2019-02-12T03:24:42.754Z,0.00
2019-02-12T03:25:42.780Z,0.00
2019-02-12T03:26:42.732Z,0.00
2019-02-12T03:27:42.720Z,0.00
2019-02-12T03:28:42.714Z,0.00
2019-02-12T03:29:42.701Z,0.00
2019-02-12T03:30:42.695Z,0.00
2019-02-12T03:31:42.687Z,0.00
2019-02-12T03:32:42.701Z,0.00
2019-02-12T03:33:42.659Z,0.00
2019-02-12T03:34:42.645Z,0.00
2019-02-12T03:35:42.637Z,0.00
2019-02-12T03:36:42.636Z,0.00
2019-02-12T03:37:42.615Z,0.00
2019-02-12T03:38:42.606Z,0.00
2019-02-12T03:39:42.594Z,0.00
2019-02-12T03:40:42.583Z,0.00
2019-02-12T03:41:42.583Z,0.00
2019-02-12T03:42:42.564Z,0.00
2019-02-12T03:43:42.555Z,0.00
2019-02-12T03:44:42.539Z,0.00
2019-02-12T03:45:42.532Z,0.00
2019-02-12T03:46:42.561Z,0.00
2019-02-12T03:47:42.522Z,0.00
2019-02-12T03:48:42.498Z,0.00
2019-02-12T03:49:42.490Z,0.00
2019-02-12T03:50:42.476Z,0.00
2019-02-12T03:51:42.485Z,0.00
2019-02-12T03:52:42.458Z,0.00
2019-02-12T03:53:42.446Z,0.00
2019-02-12T03:54:42.437Z,0.00
2019-02-12T03:55:42.425Z,0.00
2019-02-12T03:56:42.423Z,0.00
2019-02-12T03:57:42.401Z,0.00
2019-02-12T03:58:42.393Z,0.00
2019-02-12T03:59:42.387Z,0.00
2019-02-12T04:00:42.371Z,0.00
2019-02-12T04:01:42.375Z,0.00
2019-02-12T04:02:42.349Z,0.00
2019-02-12T04:03:42.339Z,0.00
2019-02-12T04:04:42.332Z,0.00
2019-02-12T04:05:42.319Z,0.00
2019-02-12T04:06:42.324Z,0.00
2019-02-12T04:07:42.368Z,0.00
2019-02-12T04:08:42.293Z,0.00
2019-02-12T04:09:42.276Z,0.00
2019-02-12T04:10:42.276Z,0.00
2019-02-12T04:11:42.279Z,0.00
2019-02-12T04:12:42.248Z,0.00
2019-02-12T04:13:42.247Z,0.00
2019-02-12T04:14:42.224Z,0.00
2019-02-12T04:15:42.215Z,0.00
2019-02-12T04:16:42.215Z,0.00
2019-02-12T04:17:42.191Z,0.00
2019-02-12T04:18:42.183Z,0.00
2019-02-12T04:19:42.176Z,0.00
2019-02-12T04:20:42.170Z,0.00
2019-02-12T04:21:42.166Z,0.00
2019-02-12T04:22:42.143Z,0.00
2019-02-12T04:23:42.130Z,0.00
2019-02-12T04:24:42.120Z,0.00
2019-02-12T04:25:42.108Z,0.00
2019-02-12T04:26:42.121Z,0.00
2019-02-12T04:27:42.088Z,0.00
2019-02-12T04:28:42.084Z,0.00
2019-02-12T04:29:42.076Z,0.00
2019-02-12T04:30:42.063Z,0.00
2019-02-12T04:31:42.068Z,0.00
2019-02-12T04:32:42.038Z,0.00
2019-02-12T04:33:42.026Z,0.00
2019-02-12T04:34:42.017Z,0.00
2019-02-12T04:35:42.018Z,0.00
2019-02-12T04:36:42.011Z,0.00
2019-02-12T04:37:41.983Z,0.00
2019-02-12T04:38:41.975Z,0.00
2019-02-12T04:39:41.966Z,0.00
2019-02-12T04:40:41.952Z,0.00
2019-02-12T04:41:41.961Z,0.00
2019-02-12T04:42:41.931Z,0.00
2019-02-12T04:43:41.920Z,0.00
2019-02-12T04:44:41.921Z,0.00
2019-02-12T04:45:41.902Z,0.00
2019-02-12T04:46:41.920Z,0.00
2019-02-12T04:47:41.876Z,0.00
2019-02-12T04:48:41.870Z,0.00
2019-02-12T04:49:41.860Z,0.00
2019-02-12T04:50:41.850Z,0.00
2019-02-12T04:51:41.835Z,0.00
2019-02-12T04:52:41.842Z,0.00
2019-02-12T04:53:41.816Z,0.00
2019-02-12T04:54:41.819Z,0.00
2019-02-12T04:55:41.801Z,0.00
2019-02-12T04:56:41.791Z,0.00
2019-02-12T04:57:42.019Z,0.00
2019-02-12T04:58:41.769Z,0.00
2019-02-12T04:59:41.769Z,0.00
2019-02-12T05:00:41.753Z,0.00
2019-02-12T05:01:41.740Z,0.00
2019-02-12T05:02:41.741Z,0.00
2019-02-12T05:03:41.706Z,0.00
2019-02-12T05:04:41.697Z,0.00
2019-02-12T05:05:41.692Z,0.00
2019-02-12T05:06:41.677Z,0.00
2019-02-12T05:07:41.691Z,0.00
2019-02-12T05:08:41.665Z,0.00
2019-02-12T05:09:41.644Z,0.00
2019-02-12T05:10:41.634Z,0.00
2019-02-12T05:11:41.627Z,0.00
2019-02-12T05:12:41.627Z,0.00
2019-02-12T05:13:41.604Z,0.00
2019-02-12T05:14:41.593Z,0.00
2019-02-12T05:15:41.585Z,0.00
2019-02-12T05:16:41.572Z,0.00
2019-02-12T05:17:41.571Z,0.00
2019-02-12T05:18:41.551Z,0.00
2019-02-12T05:19:41.541Z,0.00
2019-02-12T05:20:41.528Z,0.00
2019-02-12T05:21:41.524Z,0.00
2019-02-12T05:22:43.470Z,0.00
2019-02-12T05:23:41.517Z,0.00
2019-02-12T05:24:41.491Z,0.00
2019-02-12T05:25:41.481Z,0.00
2019-02-12T05:26:41.465Z,0.00
2019-02-12T05:27:41.499Z,0.00
2019-02-12T05:28:41.446Z,0.00
2019-02-12T05:29:41.436Z,0.00
2019-02-12T05:30:41.427Z,0.00
2019-02-12T05:31:41.425Z,0.00
2019-02-12T05:32:41.422Z,0.00
2019-02-12T05:33:41.390Z,0.00
2019-02-12T05:34:41.388Z,0.00
2019-02-12T05:35:41.381Z,0.00
2019-02-12T05:36:41.368Z,0.00
2019-02-12T05:37:41.365Z,0.00
2019-02-12T05:38:41.365Z,0.00
2019-02-12T05:39:41.343Z,0.00
2019-02-12T05:40:41.324Z,0.00
2019-02-12T05:41:41.311Z,0.00
2019-02-12T05:42:41.313Z,0.00
2019-02-12T05:43:41.288Z,0.00
2019-02-12T05:44:41.293Z,0.00
2019-02-12T05:45:41.284Z,0.00
2019-02-12T05:46:41.261Z,0.00
2019-02-12T05:47:41.304Z,0.00
2019-02-12T05:48:41.235Z,0.00
2019-02-12T05:49:41.225Z,0.00
2019-02-12T05:50:41.225Z,0.00
2019-02-12T05:51:41.204Z,0.00
2019-02-12T05:52:41.205Z,0.00
2019-02-12T05:53:41.181Z,0.00
2019-02-12T05:54:41.173Z,0.00
2019-02-12T05:55:41.166Z,0.00
2019-02-12T05:56:41.153Z,0.00
2019-02-12T05:57:41.158Z,0.00
2019-02-12T05:58:41.130Z,0.00
2019-02-12T05:59:41.116Z,0.00
2019-02-12T06:00:41.109Z,0.00
2019-02-12T06:01:41.110Z,0.00
2019-02-12T06:02:41.118Z,0.00
2019-02-12T06:03:41.083Z,0.00
2019-02-12T06:04:41.068Z,0.00
2019-02-12T06:05:41.062Z,0.00
2019-02-12T06:06:41.052Z,0.00
2019-02-12T06:07:41.036Z,0.00
2019-02-12T06:08:41.047Z,0.00
2019-02-12T06:09:41.021Z,0.00
2019-02-12T06:10:41.005Z,0.00
2019-02-12T06:11:40.994Z,0.00
2019-02-12T06:12:40.986Z,0.00
2019-02-12T06:13:41.003Z,0.00
2019-02-12T06:14:40.963Z,0.00
2019-02-12T06:15:40.952Z,0.00
2019-02-12T06:16:40.943Z,0.00
2019-02-12T06:17:40.933Z,0.00
2019-02-12T06:18:40.930Z,0.00
2019-02-12T06:19:40.909Z,0.00
2019-02-12T06:20:40.898Z,0.00
2019-02-12T06:21:40.897Z,0.00
2019-02-12T06:22:40.878Z,0.00
2019-02-12T06:23:40.880Z,5.62
2019-02-12T06:24:40.915Z,5.62
2019-02-12T06:25:40.848Z,5.62
2019-02-12T06:26:40.841Z,5.62
2019-02-12T06:27:40.826Z,5.62
2019-02-12T06:28:40.831Z,5.62
2019-02-12T06:29:40.805Z,5.62
2019-02-12T06:30:40.793Z,11.25
2019-02-12T06:31:40.793Z,11.25
2019-02-12T06:32:40.772Z,11.25
2019-02-12T06:33:40.774Z,11.25
2019-02-12T06:34:40.751Z,11.25
2019-02-12T06:35:40.748Z,11.25
2019-02-12T06:36:40.745Z,11.25
2019-02-12T06:37:40.723Z,5.62
2019-02-12T06:38:40.723Z,5.62
2019-02-12T06:39:40.710Z,5.62
2019-02-12T06:40:40.692Z,5.62
2019-02-12T06:41:40.676Z,11.25
2019-02-12T06:42:40.668Z,11.25
2019-02-12T06:43:40.669Z,11.25
2019-02-12T06:44:40.647Z,16.88
2019-02-12T06:45:40.638Z,16.88
2019-02-12T06:46:40.627Z,16.88
2019-02-12T06:47:40.617Z,16.88
2019-02-12T06:48:40.616Z,22.50
2019-02-12T06:49:41.519Z,22.50
2019-02-12T06:50:40.585Z,22.50
2019-02-12T06:51:40.575Z,22.50
2019-02-12T06:52:40.567Z,22.50
2019-02-12T06:53:40.562Z,22.50
2019-02-12T06:54:40.545Z,22.50
2019-02-12T06:55:40.529Z,28.12
2019-02-12T06:56:40.523Z,28.12
2019-02-12T06:57:40.517Z,22.50
2019-02-12T06:58:40.525Z,16.88
2019-02-12T06:59:40.491Z,16.88
2019-02-12T07:00:40.478Z,11.25
2019-02-12T07:01:40.494Z,16.88
2019-02-12T07:02:41.882Z,16.88
2019-02-12T07:03:40.461Z,16.88
2019-02-12T07:04:40.490Z,16.88
2019-02-12T07:05:40.440Z,16.88
2019-02-12T07:06:40.416Z,16.88
2019-02-12T07:07:40.403Z,16.88
2019-02-12T07:08:40.417Z,16.88
2019-02-12T07:09:40.422Z,16.88
2019-02-12T07:10:40.379Z,22.50
2019-02-12T07:11:40.372Z,16.88
2019-02-12T07:12:40.357Z,11.25
2019-02-12T07:13:40.378Z,11.25
2019-02-12T07:14:40.334Z,16.88
2019-02-12T07:15:40.322Z,16.88
2019-02-12T07:16:40.313Z,22.50
2019-02-12T07:17:40.305Z,16.88
2019-02-12T07:18:40.294Z,16.88
2019-02-12T07:19:40.286Z,22.50
2019-02-12T07:20:40.269Z,33.75
2019-02-12T07:21:40.255Z,39.38
2019-02-12T07:22:40.248Z,50.62
2019-02-12T07:23:40.236Z,56.25
2019-02-12T07:24:40.238Z,45.00
2019-02-12T07:25:40.216Z,50.62
2019-02-12T07:26:40.212Z,39.38
2019-02-12T07:27:40.195Z,28.12
2019-02-12T07:28:40.185Z,22.50
2019-02-12T07:29:40.206Z,28.12
2019-02-12T07:30:40.173Z,39.38
2019-02-12T07:31:40.156Z,50.62
2019-02-12T07:32:40.150Z,56.25
2019-02-12T07:33:40.134Z,61.88
2019-02-12T07:34:40.286Z,67.50
2019-02-12T07:35:40.130Z,78.75
2019-02-12T07:36:40.799Z,95.62
2019-02-12T07:37:40.090Z,95.62
2019-02-12T07:38:40.081Z,90.00
2019-02-12T07:39:40.094Z,95.62
2019-02-12T07:40:40.058Z,101.25
2019-02-12T07:41:40.046Z,95.62
2019-02-12T07:42:40.039Z,84.38
2019-02-12T07:43:40.025Z,78.75
2019-02-12T07:44:40.028Z,78.75
2019-02-12T07:45:40.004Z,84.38
2019-02-12T07:46:39.995Z,95.62
2019-02-12T07:47:39.983Z,101.25
2019-02-12T07:48:39.974Z,106.88
2019-02-12T07:49:39.988Z,101.25
2019-02-12T07:50:39.951Z,90.00
2019-02-12T07:51:39.955Z,78.75
2019-02-12T07:52:39.935Z,84.38
2019-02-12T07:53:39.940Z,78.75
2019-02-12T07:54:39.956Z,90.00
2019-02-12T07:55:39.900Z,90.00
2019-02-12T07:56:39.896Z,78.75
2019-02-12T07:57:39.905Z,84.38
2019-02-12T07:58:39.869Z,106.88
2019-02-12T07:59:39.863Z,112.50
2019-02-12T08:00:39.892Z,135.00
2019-02-12T08:01:39.835Z,151.88
2019-02-12T08:02:39.826Z,151.88
2019-02-12T08:03:39.820Z,151.88
2019-02-12T08:04:39.814Z,146.25
2019-02-12T08:05:39.815Z,123.75
2019-02-12T08:06:39.784Z,112.50
2019-02-12T08:07:39.773Z,112.50
2019-02-12T08:08:39.769Z,118.12
2019-02-12T08:09:39.752Z,123.75
2019-02-12T08:10:39.752Z,118.12
2019-02-12T08:11:39.732Z,101.25
2019-02-12T08:12:39.721Z,118.12
2019-02-12T08:13:39.728Z,84.38
2019-02-12T08:14:39.699Z,90.00
2019-02-12T08:15:39.948Z,106.88
2019-02-12T08:16:39.721Z,106.88
2019-02-12T08:17:39.681Z,78.75
2019-02-12T08:18:39.665Z,61.88
2019-02-12T08:19:39.649Z,56.25
2019-02-12T08:20:39.652Z,56.25
2019-02-12T08:21:39.626Z,61.88
2019-02-12T08:22:39.714Z,84.38
2019-02-12T08:23:41.205Z,95.62
2019-02-12T08:24:39.609Z,95.62
2019-02-12T08:25:39.606Z,106.88
2019-02-12T08:26:39.575Z,123.75
2019-02-12T08:27:39.567Z,123.75
2019-02-12T08:28:39.556Z,123.75
2019-02-12T08:29:39.551Z,163.12
2019-02-12T08:30:39.565Z,191.25
2019-02-12T08:31:39.539Z,157.50
2019-02-12T08:32:39.518Z,174.38
2019-02-12T08:33:39.504Z,241.88
2019-02-12T08:34:39.495Z,168.75
2019-02-12T08:35:39.530Z,157.50
2019-02-12T08:36:39.475Z,219.38
2019-02-12T08:37:39.465Z,208.12
2019-02-12T08:38:39.458Z,320.62
2019-02-12T08:39:39.441Z,371.25
2019-02-12T08:40:39.449Z,264.38
2019-02-12T08:41:39.423Z,225.00
2019-02-12T08:42:39.409Z,309.38
2019-02-12T08:43:39.404Z,309.38
2019-02-12T08:44:39.389Z,236.25
2019-02-12T08:45:39.386Z,247.50
2019-02-12T08:46:39.364Z,196.88
2019-02-12T08:47:39.501Z,236.25
2019-02-12T08:48:39.371Z,298.12
2019-02-12T08:49:39.337Z,331.88
2019-02-12T08:50:39.344Z,399.38
2019-02-12T08:51:39.315Z,444.38
2019-02-12T08:52:39.299Z,202.50
2019-02-12T08:53:39.292Z,168.75
2019-02-12T08:54:39.302Z,225.00
2019-02-12T08:55:39.279Z,292.50
2019-02-12T08:56:39.258Z,427.50
2019-02-12T08:57:39.248Z,421.88
2019-02-12T08:58:39.252Z,393.75
2019-02-12T08:59:39.223Z,421.88
2019-02-12T09:00:39.330Z,393.75
2019-02-12T09:01:39.200Z,208.12
2019-02-12T09:02:39.226Z,219.38
2019-02-12T09:03:40.169Z,585.00
2019-02-12T09:04:39.219Z,613.12
2019-02-12T09:05:39.205Z,573.75
2019-02-12T09:06:39.190Z,568.12
2019-02-12T09:07:39.161Z,253.12
2019-02-12T09:08:39.171Z,517.50
2019-02-12T09:09:39.128Z,528.75
2019-02-12T09:10:39.139Z,511.88
2019-02-12T09:11:39.103Z,596.25
2019-02-12T09:12:39.079Z,466.88
2019-02-12T09:13:39.069Z,466.88
2019-02-12T09:14:39.063Z,213.75
2019-02-12T09:15:39.107Z,168.75
2019-02-12T09:16:39.050Z,247.50
2019-02-12T09:17:40.214Z,253.12
2019-02-12T09:18:39.017Z,292.50
2019-02-12T09:19:39.005Z,202.50
2019-02-12T09:20:39.006Z,219.38
2019-02-12T09:21:38.996Z,320.62
2019-02-12T09:22:38.976Z,393.75
2019-02-12T09:23:39.029Z,303.75
2019-02-12T09:24:38.950Z,247.50
2019-02-12T09:25:38.941Z,225.00
2019-02-12T09:26:38.942Z,202.50
2019-02-12T09:27:38.920Z,236.25
2019-02-12T09:28:38.908Z,303.75
2019-02-12T09:29:38.897Z,281.25
2019-02-12T09:30:38.886Z,225.00
2019-02-12T09:31:38.916Z,348.75
2019-02-12T09:32:39.103Z,331.88
2019-02-12T09:33:38.856Z,303.75
2019-02-12T09:34:38.870Z,258.75
2019-02-12T09:35:38.847Z,225.00
2019-02-12T09:36:38.834Z,168.75
2019-02-12T09:37:38.828Z,163.12
2019-02-12T09:38:42.574Z,157.50
2019-02-12T09:39:38.842Z,163.12
2019-02-12T09:40:38.782Z,202.50
2019-02-12T09:41:38.779Z,343.12
2019-02-12T09:42:38.778Z,399.38
2019-02-12T09:43:38.793Z,331.88
2019-02-12T09:44:38.740Z,275.62
2019-02-12T09:45:38.792Z,286.88
2019-02-12T09:46:38.725Z,371.25
2019-02-12T09:47:38.731Z,264.38
2019-02-12T09:48:38.699Z,264.38
2019-02-12T09:49:38.715Z,241.88
2019-02-12T09:50:38.688Z,225.00
2019-02-12T09:51:38.671Z,157.50
2019-02-12T09:52:38.722Z,236.25
2019-02-12T09:53:38.647Z,270.00
2019-02-12T09:54:38.638Z,241.88
2019-02-12T09:55:38.625Z,253.12
2019-02-12T09:56:38.631Z,253.12
2019-02-12T09:57:39.071Z,298.12
2019-02-12T09:58:38.594Z,275.62
2019-02-12T09:59:38.582Z,281.25
2019-02-12T10:00:38.578Z,264.38
2019-02-12T10:01:38.583Z,253.12
2019-02-12T10:02:38.571Z,208.12
2019-02-12T10:03:38.529Z,180.00
2019-02-12T10:04:38.522Z,180.00
2019-02-12T10:05:38.538Z,241.88
2019-02-12T10:06:38.535Z,225.00
2019-02-12T10:07:38.537Z,225.00
2019-02-12T10:08:38.558Z,202.50
2019-02-12T10:09:38.466Z,180.00
2019-02-12T10:10:38.452Z,230.62
2019-02-12T10:11:38.447Z,230.62
2019-02-12T10:12:38.436Z,174.38
2019-02-12T10:13:38.457Z,180.00
2019-02-12T10:14:38.413Z,258.75
2019-02-12T10:15:38.410Z,337.50
2019-02-12T10:16:38.394Z,270.00
2019-02-12T10:17:38.397Z,230.62
2019-02-12T10:18:38.596Z,208.12
2019-02-12T10:19:38.362Z,185.62
2019-02-12T10:20:38.349Z,191.25
2019-02-12T10:21:38.333Z,225.00
2019-02-12T10:22:38.323Z,292.50
2019-02-12T10:23:38.324Z,298.12
2019-02-12T10:24:38.306Z,298.12
2019-02-12T10:25:38.295Z,286.88
2019-02-12T10:26:38.532Z,241.88
2019-02-12T10:27:38.281Z,225.00
2019-02-12T10:28:38.288Z,270.00
2019-02-12T10:29:38.273Z,236.25
2019-02-12T10:30:38.258Z,191.25
2019-02-12T10:31:38.263Z,241.88
2019-02-12T10:32:38.223Z,264.38
2019-02-12T10:33:38.223Z,326.25
2019-02-12T10:34:38.219Z,337.50
2019-02-12T10:35:38.192Z,320.62
2019-02-12T10:36:38.176Z,281.25
2019-02-12T10:37:38.174Z,247.50
2019-02-12T10:38:38.178Z,337.50
2019-02-12T10:39:38.150Z,309.38
2019-02-12T10:40:38.135Z,303.75
2019-02-12T10:41:38.128Z,298.12
2019-02-12T10:42:38.119Z,275.62
2019-02-12T10:43:38.131Z,270.00
2019-02-12T10:44:38.091Z,219.38
2019-02-12T10:45:38.078Z,202.50
2019-02-12T10:46:38.076Z,213.75
2019-02-12T10:47:38.072Z,270.00
2019-02-12T10:48:38.066Z,360.00
2019-02-12T10:49:38.042Z,326.25
2019-02-12T10:50:38.034Z,264.38
2019-02-12T10:51:38.018Z,236.25
2019-02-12T10:52:38.009Z,241.88
2019-02-12T10:53:38.018Z,236.25
2019-02-12T10:54:37.986Z,230.62
2019-02-12T10:55:37.990Z,225.00
2019-02-12T10:56:37.962Z,230.62
2019-02-12T10:57:37.954Z,185.62
2019-02-12T10:58:37.969Z,168.75
2019-02-12T10:59:37.931Z,157.50
2019-02-12T11:00:37.920Z,140.62
2019-02-12T11:01:37.910Z,129.38
2019-02-12T11:02:37.911Z,129.38
2019-02-12T11:03:38.014Z,146.25
2019-02-12T11:04:37.877Z,174.38
2019-02-12T11:05:37.864Z,180.00
2019-02-12T11:06:37.854Z,202.50
2019-02-12T11:07:37.839Z,270.00
2019-02-12T11:08:37.833Z,320.62
2019-02-12T11:09:37.831Z,315.00
2019-02-12T11:10:37.830Z,253.12
2019-02-12T11:11:37.810Z,247.50
2019-02-12T11:12:37.790Z,258.75
2019-02-12T11:13:37.780Z,236.25
2019-02-12T11:14:37.798Z,225.00
2019-02-12T11:15:37.762Z,196.88
2019-02-12T11:16:37.763Z,185.62
2019-02-12T11:17:37.787Z,180.00
2019-02-12T11:18:38.569Z,163.12
2019-02-12T11:19:38.559Z,146.25
2019-02-12T11:20:38.554Z,140.62
2019-02-12T11:21:37.700Z,146.25
2019-02-12T11:22:37.697Z,151.88
2019-02-12T11:23:37.671Z,163.12
2019-02-12T11:24:37.682Z,180.00
2019-02-12T11:25:37.649Z,157.50
2019-02-12T11:26:37.638Z,151.88
2019-02-12T11:27:37.649Z,151.88
2019-02-12T11:28:37.634Z,151.88
2019-02-12T11:29:37.629Z,157.50
2019-02-12T11:30:37.595Z,174.38
2019-02-12T11:31:37.590Z,151.88
2019-02-12T11:32:37.575Z,135.00
2019-02-12T11:33:37.569Z,135.00
2019-02-12T11:34:37.585Z,146.25
2019-02-12T11:35:37.548Z,140.62
2019-02-12T11:36:37.537Z,140.62
2019-02-12T11:37:37.520Z,140.62
2019-02-12T11:38:37.512Z,135.00
2019-02-12T11:39:37.519Z,129.38
2019-02-12T11:40:37.484Z,135.00
2019-02-12T11:41:37.475Z,135.00
2019-02-12T11:42:37.472Z,135.00
2019-02-12T11:43:37.455Z,135.00
2019-02-12T11:44:37.460Z,135.00
2019-02-12T11:45:37.449Z,135.00
2019-02-12T11:46:37.421Z,135.00
2019-02-12T11:47:37.411Z,129.38
2019-02-12T11:48:37.411Z,123.75
2019-02-12T11:49:37.394Z,135.00
2019-02-12T11:50:37.393Z,135.00
2019-02-12T11:51:37.371Z,135.00
2019-02-12T11:52:37.357Z,140.62
2019-02-12T11:53:37.369Z,151.88
2019-02-12T11:54:43.572Z,151.88
2019-02-12T11:55:38.338Z,157.50
2019-02-12T11:56:37.343Z,168.75
2019-02-12T11:57:37.303Z,180.00
2019-02-12T11:58:37.294Z,191.25
2019-02-12T11:59:37.284Z,213.75
2019-02-12T12:00:37.285Z,241.88
2019-02-12T12:01:37.270Z,253.12
2019-02-12T12:02:42.048Z,236.25
2019-02-12T12:03:38.238Z,208.12
2019-02-12T12:04:37.230Z,202.50
2019-02-12T12:05:37.230Z,213.75
2019-02-12T12:06:37.209Z,225.00
2019-02-12T12:07:37.195Z,225.00
2019-02-12T12:08:37.186Z,208.12
2019-02-12T12:09:37.177Z,196.88
2019-02-12T12:10:37.173Z,191.25
2019-02-12T12:11:37.216Z,191.25
2019-02-12T12:12:37.145Z,196.88
2019-02-12T12:13:37.130Z,202.50
2019-02-12T12:14:37.128Z,219.38
2019-02-12T12:15:37.123Z,236.25
2019-02-12T12:16:37.109Z,236.25
2019-02-12T12:17:37.100Z,236.25
2019-02-12T12:18:37.087Z,230.62
2019-02-12T12:19:37.080Z,219.38
2019-02-12T12:20:37.094Z,213.75
2019-02-12T12:21:37.052Z,225.00
2019-02-12T12:22:37.038Z,230.62
2019-02-12T12:23:37.022Z,213.75
2019-02-12T12:24:37.014Z,213.75
2019-02-12T12:25:37.019Z,225.00
2019-02-12T12:26:36.996Z,236.25
2019-02-12T12:27:36.988Z,225.00
2019-02-12T12:28:36.974Z,230.62
2019-02-12T12:29:36.958Z,208.12
2019-02-12T12:30:36.963Z,185.62
2019-02-12T12:31:36.940Z,157.50
2019-02-12T12:32:36.981Z,146.25
2019-02-12T12:33:36.915Z,135.00
2019-02-12T12:34:36.903Z,129.38
2019-02-12T12:35:36.911Z,123.75
2019-02-12T12:36:36.892Z,118.12
2019-02-12T12:37:36.877Z,118.12
2019-02-12T12:38:36.890Z,123.75
2019-02-12T12:39:36.851Z,123.75
2019-02-12T12:40:36.849Z,140.62
2019-02-12T12:41:36.830Z,146.25
2019-02-12T12:42:36.836Z,140.62
2019-02-12T12:43:36.820Z,146.25
2019-02-12T12:44:36.807Z,146.25
2019-02-12T12:45:36.840Z,146.25
2019-02-12T12:46:36.783Z,146.25
2019-02-12T12:47:36.770Z,157.50
2019-02-12T12:48:36.765Z,168.75
2019-02-12T12:49:36.743Z,196.88
2019-02-12T12:50:36.769Z,213.75
2019-02-12T12:51:36.726Z,180.00
2019-02-12T12:52:36.712Z,157.50
2019-02-12T12:53:36.740Z,174.38
2019-02-12T12:54:36.710Z,174.38
2019-02-12T12:55:36.702Z,163.12